Terminal Aerodrome Forecast
Issued by NWS Huntsville, AL

Home | Current Version | Previous Version | Text Only | Print | Product List | Glossary On
Versions: 1 2 3 4 5 6 7 8 9 10 11 12 13 14 15 16 17 18 19 20 21 22 23 24 25 26 27 28 29 30 31 32 33 34 35 36 37 38 39 40 41
000
FTUS44 KHUN 310520
TAFMSL
TAF
KMSL 310520Z 3106/0106 11004KT P6SM SCT040
     FM310800 09002KT 3SM BR BKN015
      TEMPO 3111/3113 1SM BR BKN008 OVC015
     FM311400 VRB02KT P6SM SCT030 BKN050
     FM010100 VRB02KT P6SM SCT050=

USA.gov is the U.S. government's official web portal to all federal, state and local government web resources and services.